Terminal Aerodrome Forecast
Issued by NWS

Home | Current Version | Previous Version | Graphics & Text | Print | Product List | Glossary On
Versions: 1 2 3 4 5 6 7 8 9 10 11 12 13 14 15 16 17
000
FTUS43 KUNR 011720
TAFGCC
TAF
KGCC 011720Z 0118/0218 28011KT P6SM SCT040 BKN250
     FM020100 25007KT P6SM BKN120
     FM021100 28006KT P6SM OVC015=

USA.gov is the U.S. government's official web portal to all federal, state and local government web resources and services.